ADDS METAR Data INFO
IDs: Format: Raw Decoded Include TAF

Data at: 2053 UTC 26 May 2017

KCDS 261953Z AUTO VRB03KT 10SM CLR 32/15 A2982 RMK AO2 SLP068 T03170150
KCDS 261853Z AUTO VRB05KT 10SM CLR 31/14 A2983 RMK AO2 SLP073 T03060144
KCDS 261753Z AUTO 03007KT 10SM CLR 30/15 A2984 RMK AO2 SLP074 T03000150 10300 20183 50003
KCDS 261653Z AUTO 02009KT 10SM CLR 28/14 A2984 RMK AO2 SLP076 T02780144
KCDS 261553Z AUTO 35013KT 10SM CLR 25/14 A2983 RMK AO2 SLP074 T02500139
KCDS 261453Z AUTO 32012KT 10SM CLR 23/13 A2983 RMK AO2 SLP072 T02330128 51032
KCDS 261353Z AUTO 31008KT 10SM CLR 21/12 A2980 RMK AO2 SLP064 T02110117
KCDS 261253Z AUTO 30008KT 10SM CLR 19/09 A2977 RMK AO2 SLP052 T01940089
KCDS 261153Z AUTO 32008KT 10SM CLR 18/M01 A2973 RMK AO2 SLP034 T01831006 10256 20183 53033
KCDS 261053Z AUTO 21012KT 10SM CLR 19/00 A2967 RMK AO2 SLP014 T01890000
KCDS 260953Z AUTO 26006KT 10SM CLR 20/00 A2966 RMK AO2 SLP010 T02000000
KCDS 260853Z AUTO 23011KT 9SM CLR 23/M01 A2962 RMK AO2 SLP997 T02331011 53011
KCDS 260753Z AUTO 32008KT 10SM CLR 23/01 A2961 RMK AO2 SLP993 T02330006
KCDS 260653Z AUTO 24013KT 9SM CLR 26/01 A2959 RMK AO2 SLP987 T02560011
KCDS 260553Z AUTO 24012KT 10SM CLR 26/01 A2959 RMK AO2 SLP987 T02560011 10389 20250 404110122 51025
KCDS 260453Z AUTO 23010KT 10SM CLR 26/04 A2957 RMK AO2 SLP985 T02560039
KCDS 260353Z AUTO 23012KT 10SM CLR 29/03 A2955 RMK AO2 SLP975 T02890033
KCDS 260253Z AUTO VRB03KT 10SM CLR 29/04 A2951 RMK AO2 SLP963 T02940044 53008
KCDS 260153Z AUTO 21005KT 10SM CLR 32/03 A2949 RMK AO2 SLP957 T03170033
KCDS 260053Z AUTO 25005KT 10SM CLR 36/01 A2948 RMK AO2 SLP952 T03610011
KCDS 252353Z AUTO 27015KT 10SM CLR 39/M04 A2948 RMK AO2 PK WND 26026/2301 SLP955 T03891044 10411 20317 56004
KCDS 252253Z AUTO 27018G28KT 9SM CLR 40/M06 A2949 RMK AO2 PK WND 28028/2244 WSHFT 2140 SLP955 T04001056
KCDS 252200Z AUTO 27020G25KT 10SM CLR 41/M06 A2948 RMK AO2 WSHFT 2140 T04111056
KCDS 252153Z AUTO 24018G28KT 10SM CLR 41/M05 A2949 RMK AO2 PK WND 25028/2144 SLP955 T04111050
KCDS 252053Z AUTO 15010G15KT 100V180 10SM CLR 39/06 A2950 RMK AO2 SLP959 T03890061 58022
KCDS 251953Z AUTO 10SM CLR 37/07 A2953 RMK AO2 SLP971 T03670067
KCDS 251853Z AUTO 17007KT 160V230 10SM CLR 35/09 A2955 RMK AO2 SLP978 T03500089
KCDS 251753Z AUTO VRB06KT 10SM CLR 32/08 A2956 RMK AO2 SLP985 T03170083 10317 20128 58007
KCDS 251653Z AUTO 17006KT 10SM CLR 28/10 A2958 RMK AO2 SLP992 T02830100
KCDS 251553Z AUTO 19008KT 10SM CLR 26/10 A2958 RMK AO2 SLP991 T02560100
KCDS 251453Z AUTO 20011KT 10SM CLR 24/09 A2959 RMK AO2 SLP994 T02390094 58003
KCDS 251353Z AUTO 17011KT 10SM CLR 21/09 A2959 RMK AO2 SLP996 T02060094
KCDS 251253Z AUTO 17011KT 10SM CLR 17/09 A2959 RMK AO2 SLP997 T01670089
KCDS 251153Z AUTO 14006KT 10SM CLR 13/09 A2960 RMK AO2 SLP999 T01280089 10172 20122 56003
KCDS 251053Z AUTO 13007KT 10SM CLR 13/09 A2960 RMK AO2 SLP000 T01280089
KCDS 250953Z AUTO 10007KT 10SM CLR 14/09 A2959 RMK AO2 SLP996 T01390089


Page loaded:  20:53 UTC  |   01:53 PM Pacific  |   02:53 PM Mountain  |   03:53 PM Central  |   04:53 PM Eastern

 

ADVISORIES

FORECASTS

FORECASTS

OBSERVATIONS

USER TOOLS

ABOUT US